createdAt,value
2017-11-17T00:00:05.349Z,0
2017-11-17T00:01:12.680Z,0
2017-11-17T00:02:18.714Z,0
2017-11-17T00:03:22.025Z,0
2017-11-17T00:04:24.525Z,0
2017-11-17T00:05:27.055Z,0
2017-11-17T00:06:29.654Z,0
2017-11-17T00:07:32.182Z,0
2017-11-17T00:08:35.226Z,0
2017-11-17T00:09:37.910Z,0
2017-11-17T00:10:41.001Z,0
2017-11-17T00:11:43.503Z,0
2017-11-17T00:12:46.007Z,0
2017-11-17T00:13:48.788Z,0
2017-11-17T00:14:51.306Z,0
2017-11-17T00:15:53.821Z,0
2017-11-17T00:16:56.315Z,0
2017-11-17T00:17:58.811Z,0
2017-11-17T00:19:01.315Z,0
2017-11-17T00:20:03.803Z,0
2017-11-17T00:21:06.317Z,0
2017-11-17T00:22:08.809Z,0
2017-11-17T00:23:11.613Z,0
2017-11-17T00:24:14.115Z,0
2017-11-17T00:25:16.604Z,0
2017-11-17T00:26:19.404Z,0
2017-11-17T00:27:21.904Z,0
2017-11-17T00:28:24.391Z,0
2017-11-17T00:29:26.887Z,0
2017-11-17T00:30:29.397Z,0
2017-11-17T00:31:31.888Z,0
2017-11-17T00:32:34.683Z,0
2017-11-17T00:33:37.517Z,0
2017-11-17T00:34:40.602Z,0
2017-11-17T00:35:43.395Z,0
2017-11-17T00:36:45.887Z,0
2017-11-17T00:37:48.410Z,0
2017-11-17T00:38:50.904Z,0
2017-11-17T00:39:53.406Z,0
2017-11-17T00:40:56.207Z,0
2017-11-17T00:41:58.701Z,0
2017-11-17T00:43:01.203Z,0
2017-11-17T00:44:04.325Z,0
2017-11-17T00:45:06.821Z,0
2017-11-17T00:46:09.323Z,0
2017-11-17T00:47:11.817Z,0
2017-11-17T00:48:14.315Z,0
2017-11-17T00:49:16.822Z,0
2017-11-17T00:50:19.334Z,0
2017-11-17T00:51:21.826Z,0
2017-11-17T00:52:24.332Z,0
2017-11-17T00:53:26.822Z,0
2017-11-17T00:54:29.315Z,0
2017-11-17T00:55:31.822Z,0
2017-11-17T00:56:34.620Z,0
2017-11-17T00:57:37.125Z,0
2017-11-17T00:58:39.621Z,0
2017-11-17T00:59:42.118Z,0
2017-11-17T01:00:44.617Z,0
2017-11-17T01:01:47.123Z,0
2017-11-17T01:02:49.914Z,0
2017-11-17T01:03:52.405Z,0
2017-11-17T01:04:54.904Z,0
2017-11-17T01:05:57.408Z,0
2017-11-17T01:06:59.902Z,0
2017-11-17T01:08:02.395Z,0
2017-11-17T01:09:04.896Z,0
2017-11-17T01:10:07.395Z,0
2017-11-17T01:11:10.205Z,0
2017-11-17T01:12:13.000Z,0
2017-11-17T01:13:15.792Z,0
2017-11-17T01:14:18.307Z,0
2017-11-17T01:15:20.807Z,0
2017-11-17T01:16:23.308Z,0
2017-11-17T01:17:25.817Z,0
2017-11-17T01:18:28.594Z,0
2017-11-17T01:19:31.095Z,0
2017-11-17T01:20:33.608Z,0
2017-11-17T01:21:36.102Z,0
2017-11-17T01:22:38.905Z,0
2017-11-17T01:23:41.404Z,0
2017-11-17T01:24:44.188Z,0
2017-11-17T01:25:46.998Z,0
2017-11-17T01:26:49.502Z,0
2017-11-17T01:27:51.991Z,0
2017-11-17T01:28:54.810Z,0
2017-11-17T01:29:57.300Z,0
2017-11-17T01:30:59.805Z,0
2017-11-17T01:32:02.295Z,0
2017-11-17T01:33:04.797Z,0
2017-11-17T01:34:07.302Z,0
2017-11-17T01:35:10.096Z,0
2017-11-17T01:36:12.584Z,0
2017-11-17T01:37:15.092Z,0
2017-11-17T01:38:17.577Z,0
2017-11-17T01:39:20.093Z,0
2017-11-17T01:40:22.586Z,0
2017-11-17T01:41:25.083Z,0
2017-11-17T01:42:27.581Z,0
2017-11-17T01:43:30.098Z,0
2017-11-17T01:44:32.573Z,0
2017-11-17T01:45:35.084Z,0
2017-11-17T01:46:37.577Z,0
2017-11-17T01:47:40.080Z,0
2017-11-17T01:48:42.579Z,0
2017-11-17T01:49:45.072Z,0
2017-11-17T01:50:47.857Z,0
2017-11-17T01:51:50.374Z,0
2017-11-17T01:52:52.851Z,0
2017-11-17T01:53:55.365Z,0
2017-11-17T01:54:57.857Z,0
2017-11-17T01:56:00.348Z,0
2017-11-17T01:57:02.846Z,0
2017-11-17T01:58:05.345Z,0
2017-11-17T01:59:07.826Z,0
2017-11-17T02:00:10.328Z,0
2017-11-17T02:01:12.824Z,0
2017-11-17T02:02:15.320Z,0
2017-11-17T02:03:17.842Z,0
2017-11-17T02:04:20.336Z,0
2017-11-17T02:05:22.864Z,0
2017-11-17T02:06:25.620Z,0
2017-11-17T02:07:28.120Z,0
2017-11-17T02:08:30.619Z,0
2017-11-17T02:09:33.409Z,0
2017-11-17T02:10:35.898Z,0
2017-11-17T02:11:38.396Z,0
2017-11-17T02:12:40.907Z,0
2017-11-17T02:13:43.410Z,0
2017-11-17T02:14:45.910Z,0
2017-11-17T02:15:48.401Z,0
2017-11-17T02:16:50.896Z,0
2017-11-17T02:17:53.410Z,0
2017-11-17T02:18:56.198Z,0
2017-11-17T02:19:58.980Z,0
2017-11-17T02:21:01.476Z,0
2017-11-17T02:22:03.984Z,0
2017-11-17T02:23:06.474Z,0
2017-11-17T02:24:08.981Z,0
2017-11-17T02:25:11.467Z,0
2017-11-17T02:26:13.963Z,0
2017-11-17T02:27:16.474Z,0
2017-11-17T02:28:18.968Z,0
2017-11-17T02:29:21.469Z,0
2017-11-17T02:30:23.966Z,0
2017-11-17T02:31:26.470Z,0
2017-11-17T02:32:28.963Z,0
2017-11-17T02:33:31.756Z,0
2017-11-17T02:34:34.266Z,0
2017-11-17T02:35:36.792Z,0
2017-11-17T02:36:39.244Z,0
2017-11-17T02:37:41.756Z,0
2017-11-17T02:38:44.244Z,0
2017-11-17T02:39:47.040Z,0
2017-11-17T02:40:49.535Z,0
2017-11-17T02:41:52.024Z,0
2017-11-17T02:42:54.539Z,0
2017-11-17T02:43:57.643Z,0
2017-11-17T02:45:00.126Z,0
2017-11-17T02:46:02.624Z,0
2017-11-17T02:47:05.125Z,0
2017-11-17T02:48:07.618Z,0
2017-11-17T02:49:10.124Z,0
2017-11-17T02:50:12.622Z,0
2017-11-17T02:51:15.108Z,0
2017-11-17T02:52:17.625Z,0
2017-11-17T02:53:20.119Z,0
2017-11-17T02:54:22.616Z,0
2017-11-17T02:55:25.104Z,0
2017-11-17T02:56:28.198Z,0
2017-11-17T02:57:30.686Z,0
2017-11-17T02:58:33.199Z,0
2017-11-17T02:59:36.003Z,0
2017-11-17T03:00:38.491Z,0
2017-11-17T03:01:40.980Z,0
2017-11-17T03:02:43.491Z,0
2017-11-17T03:03:45.975Z,0
2017-11-17T03:04:48.769Z,0
2017-11-17T03:05:51.261Z,0
2017-11-17T03:06:53.763Z,0
2017-11-17T03:07:56.267Z,0
2017-11-17T03:08:58.765Z,0
2017-11-17T03:10:01.549Z,0
2017-11-17T03:11:04.341Z,0
2017-11-17T03:12:06.845Z,0
2017-11-17T03:13:09.637Z,0
2017-11-17T03:14:12.138Z,0
2017-11-17T03:15:14.626Z,0
2017-11-17T03:16:17.413Z,0
2017-11-17T03:17:19.921Z,0
2017-11-17T03:18:22.417Z,0
2017-11-17T03:19:24.907Z,0
2017-11-17T03:20:27.404Z,0
2017-11-17T03:21:29.900Z,0
2017-11-17T03:22:32.403Z,0
2017-11-17T03:23:34.901Z,0
2017-11-17T03:24:37.377Z,0
2017-11-17T03:25:39.877Z,0
2017-11-17T03:26:42.681Z,0
2017-11-17T03:27:45.480Z,0
2017-11-17T03:28:47.980Z,0
2017-11-17T03:29:50.470Z,0
2017-11-17T03:30:52.970Z,0
2017-11-17T03:31:55.475Z,0
2017-11-17T03:32:57.966Z,0
2017-11-17T03:34:00.488Z,0
2017-11-17T03:35:03.267Z,0
2017-11-17T03:36:05.768Z,0
2017-11-17T03:37:08.264Z,0
2017-11-17T03:38:10.756Z,0
2017-11-17T03:39:13.258Z,0
2017-11-17T03:40:15.756Z,0
2017-11-17T03:41:18.242Z,0
2017-11-17T03:42:20.739Z,0
2017-11-17T03:43:23.817Z,0
2017-11-17T03:44:26.309Z,0
2017-11-17T03:45:28.810Z,0
2017-11-17T03:46:31.303Z,0
2017-11-17T03:47:33.795Z,0
2017-11-17T03:48:36.292Z,0
2017-11-17T03:49:38.779Z,0
2017-11-17T03:50:41.278Z,0
2017-11-17T03:51:43.772Z,0
2017-11-17T03:52:46.270Z,0
2017-11-17T03:53:48.767Z,0
2017-11-17T03:54:51.267Z,0
2017-11-17T03:55:53.764Z,0
2017-11-17T03:56:56.266Z,0
2017-11-17T03:57:58.767Z,0
2017-11-17T03:59:01.267Z,0
2017-11-17T04:00:04.058Z,0
2017-11-17T04:01:06.561Z,0
2017-11-17T04:02:09.333Z,0
2017-11-17T04:03:12.068Z,0
2017-11-17T04:04:14.569Z,0
2017-11-17T04:05:17.048Z,0
2017-11-17T04:06:19.553Z,0
2017-11-17T04:07:22.041Z,0
2017-11-17T04:08:24.538Z,0
2017-11-17T04:09:27.038Z,0
2017-11-17T04:10:29.540Z,0
2017-11-17T04:11:32.035Z,0
2017-11-17T04:12:34.539Z,0
2017-11-17T04:13:37.024Z,0
2017-11-17T04:14:39.517Z,0
2017-11-17T04:15:42.023Z,0
2017-11-17T04:16:44.496Z,0
2017-11-17T04:17:46.994Z,0
2017-11-17T04:18:49.496Z,0
2017-11-17T04:19:52.781Z,0
2017-11-17T04:20:55.569Z,0
2017-11-17T04:21:58.071Z,0
2017-11-17T04:23:00.557Z,0
2017-11-17T04:24:03.063Z,0
2017-11-17T04:25:05.850Z,0
2017-11-17T04:26:08.331Z,0
2017-11-17T04:27:10.834Z,0
2017-11-17T04:28:13.334Z,0
2017-11-17T04:29:15.812Z,0
2017-11-17T04:30:18.315Z,0
2017-11-17T04:31:20.808Z,0
2017-11-17T04:32:23.325Z,0
2017-11-17T04:33:25.801Z,0
2017-11-17T04:34:28.297Z,0
2017-11-17T04:35:30.794Z,0
2017-11-17T04:36:33.290Z,0
2017-11-17T04:37:35.781Z,0
2017-11-17T04:38:38.274Z,0
2017-11-17T04:39:41.054Z,0
2017-11-17T04:40:43.884Z,0
2017-11-17T04:41:46.671Z,0
2017-11-17T04:42:49.169Z,0
2017-11-17T04:43:51.661Z,0
2017-11-17T04:44:54.166Z,0
2017-11-17T04:45:56.965Z,0
2017-11-17T04:46:59.463Z,0
2017-11-17T04:48:02.247Z,0
2017-11-17T04:49:04.739Z,0
2017-11-17T04:50:07.253Z,0
2017-11-17T04:51:09.735Z,0
2017-11-17T04:52:12.232Z,0
2017-11-17T04:53:14.716Z,0
2017-11-17T04:54:17.215Z,0
2017-11-17T04:55:19.712Z,0
2017-11-17T04:56:22.518Z,0
2017-11-17T04:57:25.003Z,0
2017-11-17T04:58:27.799Z,0
2017-11-17T04:59:30.301Z,0
2017-11-17T05:00:32.797Z,0
2017-11-17T05:01:35.593Z,0
2017-11-17T05:02:38.096Z,0
2017-11-17T05:03:40.591Z,0
2017-11-17T05:04:43.072Z,0
2017-11-17T05:05:45.875Z,0
2017-11-17T05:06:48.362Z,0
2017-11-17T05:07:50.861Z,0
2017-11-17T05:08:53.350Z,0
2017-11-17T05:09:56.142Z,0
2017-11-17T05:10:58.636Z,0
2017-11-17T05:12:01.149Z,0
2017-11-17T05:13:03.941Z,0
2017-11-17T05:14:06.455Z,0
2017-11-17T05:15:08.948Z,0
2017-11-17T05:16:11.426Z,0
2017-11-17T05:17:13.932Z,0
2017-11-17T05:18:16.423Z,0
2017-11-17T05:19:19.358Z,0
2017-11-17T05:20:21.875Z,0
2017-11-17T05:21:24.659Z,0
2017-11-17T05:22:27.157Z,0
2017-11-17T05:23:29.659Z,0
2017-11-17T05:24:32.142Z,0
2017-11-17T05:25:34.946Z,0
2017-11-17T05:26:37.444Z,0
2017-11-17T05:27:39.941Z,0
2017-11-17T05:28:42.425Z,0
2017-11-17T05:29:44.921Z,0
2017-11-17T05:30:47.422Z,0
2017-11-17T05:31:50.209Z,0
2017-11-17T05:32:52.698Z,0
2017-11-17T05:33:55.192Z,0
2017-11-17T05:34:57.682Z,0
2017-11-17T05:36:00.188Z,0
2017-11-17T05:37:02.983Z,0
2017-11-17T05:38:05.763Z,0
2017-11-17T05:39:08.257Z,0
2017-11-17T05:40:10.756Z,0
2017-11-17T05:41:13.250Z,0
2017-11-17T05:42:15.752Z,0
2017-11-17T05:43:18.542Z,0
2017-11-17T05:44:21.039Z,0
2017-11-17T05:45:23.541Z,0
2017-11-17T05:46:26.039Z,0
2017-11-17T05:47:28.525Z,0
2017-11-17T05:48:31.031Z,0
2017-11-17T05:49:33.523Z,0
2017-11-17T05:50:36.024Z,0
2017-11-17T05:51:38.521Z,0
2017-11-17T05:52:41.014Z,0
2017-11-17T05:53:43.507Z,0
2017-11-17T05:54:46.005Z,0
2017-11-17T05:55:48.790Z,0
2017-11-17T05:56:51.287Z,0
2017-11-17T05:57:53.789Z,0
2017-11-17T05:58:56.285Z,0
2017-11-17T05:59:58.774Z,0
2017-11-17T06:01:01.277Z,0
2017-11-17T06:02:04.046Z,0
2017-11-17T06:03:06.543Z,0
2017-11-17T06:04:09.366Z,0
2017-11-17T06:05:11.848Z,0
2017-11-17T06:06:14.349Z,0
2017-11-17T06:07:16.841Z,0
2017-11-17T06:08:19.330Z,0
2017-11-17T06:09:21.834Z,0
2017-11-17T06:10:24.325Z,0
2017-11-17T06:11:26.814Z,0
2017-11-17T06:12:29.311Z,0
2017-11-17T06:13:31.799Z,0
2017-11-17T06:14:34.287Z,0
2017-11-17T06:15:36.809Z,0
2017-11-17T06:16:39.273Z,0
2017-11-17T06:17:41.766Z,0
2017-11-17T06:18:44.264Z,0
2017-11-17T06:19:46.752Z,0
2017-11-17T06:20:49.256Z,0
2017-11-17T06:21:51.740Z,0
2017-11-17T06:22:54.232Z,0
2017-11-17T06:23:56.721Z,0
2017-11-17T06:24:59.512Z,0
2017-11-17T06:26:02.006Z,0
2017-11-17T06:27:04.790Z,0
2017-11-17T06:28:07.289Z,0
2017-11-17T06:29:10.430Z,0
2017-11-17T06:30:13.229Z,0
2017-11-17T06:31:15.724Z,0
2017-11-17T06:32:18.220Z,1
2017-11-17T06:33:21.008Z,1
2017-11-17T06:34:23.504Z,1
2017-11-17T06:35:26.148Z,1
2017-11-17T06:36:28.635Z,1
2017-11-17T06:37:31.144Z,1
2017-11-17T06:38:33.637Z,1
2017-11-17T06:39:36.126Z,2
2017-11-17T06:40:38.621Z,2
2017-11-17T06:41:41.410Z,2
2017-11-17T06:42:43.910Z,2
2017-11-17T06:43:46.692Z,2
2017-11-17T06:44:49.465Z,3
2017-11-17T06:45:52.256Z,3
2017-11-17T06:46:55.087Z,3
2017-11-17T06:47:58.163Z,4
2017-11-17T06:49:00.649Z,4
2017-11-17T06:50:03.152Z,4
2017-11-17T06:51:05.942Z,5
2017-11-17T06:52:08.454Z,5
2017-11-17T06:53:10.957Z,5
2017-11-17T06:54:13.712Z,6
2017-11-17T06:55:16.210Z,6
2017-11-17T06:56:18.721Z,6
2017-11-17T06:57:21.207Z,7
2017-11-17T06:58:23.696Z,7
2017-11-17T06:59:26.198Z,8
2017-11-17T07:00:28.692Z,8
2017-11-17T07:01:31.477Z,11
2017-11-17T07:02:33.984Z,13
2017-11-17T07:03:36.480Z,14
2017-11-17T07:04:38.969Z,15
2017-11-17T07:05:41.468Z,16
2017-11-17T07:06:43.962Z,17
2017-11-17T07:07:46.448Z,18
2017-11-17T07:08:49.246Z,20
2017-11-17T07:09:51.730Z,20
2017-11-17T07:10:54.233Z,21
2017-11-17T07:11:57.046Z,21
2017-11-17T07:12:59.501Z,20
2017-11-17T07:14:02.310Z,23
2017-11-17T07:15:04.804Z,23
2017-11-17T07:16:07.592Z,23
2017-11-17T07:17:10.700Z,25
2017-11-17T07:18:13.212Z,26
2017-11-17T07:19:15.674Z,27
2017-11-17T07:20:18.192Z,27
2017-11-17T07:21:20.685Z,28
2017-11-17T07:22:23.174Z,29
2017-11-17T07:23:25.667Z,31
2017-11-17T07:24:28.169Z,32
2017-11-17T07:25:30.660Z,35
2017-11-17T07:26:33.148Z,36
2017-11-17T07:27:35.661Z,37
2017-11-17T07:28:38.151Z,38
2017-11-17T07:29:40.650Z,39
2017-11-17T07:30:43.142Z,41
2017-11-17T07:31:45.638Z,44
2017-11-17T07:32:48.131Z,48
2017-11-17T07:33:50.638Z,50
2017-11-17T07:34:53.127Z,51
2017-11-17T07:35:55.916Z,55
2017-11-17T07:36:58.423Z,58
2017-11-17T07:38:01.228Z,61
2017-11-17T07:39:03.717Z,60
2017-11-17T07:40:06.214Z,60
2017-11-17T07:41:08.708Z,65
2017-11-17T07:42:11.507Z,68
2017-11-17T07:43:14.007Z,58
2017-11-17T07:44:16.484Z,59
2017-11-17T07:45:18.991Z,54
2017-11-17T07:46:21.489Z,37
2017-11-17T07:47:23.982Z,33
2017-11-17T07:48:27.060Z,33
2017-11-17T07:49:29.560Z,36
2017-11-17T07:50:32.352Z,34
2017-11-17T07:51:34.858Z,34
2017-11-17T07:52:37.347Z,34
2017-11-17T07:53:39.838Z,35
2017-11-17T07:54:42.327Z,38
2017-11-17T07:55:44.835Z,46
2017-11-17T07:56:47.925Z,50
2017-11-17T07:57:50.418Z,63
2017-11-17T07:58:52.912Z,76
2017-11-17T07:59:55.710Z,80
2017-11-17T08:00:58.190Z,83
2017-11-17T08:02:00.687Z,85
2017-11-17T08:03:03.492Z,82
2017-11-17T08:04:06.281Z,85
2017-11-17T08:05:08.779Z,90
2017-11-17T08:06:11.570Z,96
2017-11-17T08:07:14.063Z,99
2017-11-17T08:08:16.567Z,101
2017-11-17T08:09:19.068Z,100
2017-11-17T08:10:21.574Z,100
2017-11-17T08:11:24.365Z,100
2017-11-17T08:12:26.854Z,103
2017-11-17T08:13:29.351Z,106
2017-11-17T08:14:31.852Z,105
2017-11-17T08:15:34.339Z,101
2017-11-17T08:16:37.157Z,95
2017-11-17T08:17:39.977Z,96
2017-11-17T08:18:42.471Z,96
2017-11-17T08:19:44.969Z,94
2017-11-17T08:20:47.760Z,94
2017-11-17T08:21:50.254Z,94
2017-11-17T08:22:52.764Z,95
2017-11-17T08:23:55.256Z,98
2017-11-17T08:24:58.096Z,100
2017-11-17T08:26:00.593Z,104
2017-11-17T08:27:03.112Z,107
2017-11-17T08:28:05.604Z,112
2017-11-17T08:29:08.099Z,119
2017-11-17T08:30:10.597Z,127
2017-11-17T08:31:13.096Z,139
2017-11-17T08:32:15.894Z,149
2017-11-17T08:33:18.401Z,155
2017-11-17T08:34:20.889Z,150
2017-11-17T08:35:23.389Z,140
2017-11-17T08:36:25.905Z,148
2017-11-17T08:37:28.403Z,155
2017-11-17T08:38:30.901Z,143
2017-11-17T08:39:33.408Z,145
2017-11-17T08:40:35.902Z,149
2017-11-17T08:41:38.419Z,156
2017-11-17T08:42:41.225Z,149
2017-11-17T08:43:43.717Z,150
2017-11-17T08:44:46.221Z,157
2017-11-17T08:45:48.725Z,147
2017-11-17T08:46:51.223Z,140
2017-11-17T08:47:54.073Z,151
2017-11-17T08:48:56.774Z,166
2017-11-17T08:49:59.278Z,161
2017-11-17T08:51:01.799Z,154
2017-11-17T08:52:04.671Z,159
2017-11-17T08:53:07.174Z,156
2017-11-17T08:54:09.676Z,153
2017-11-17T08:55:12.161Z,171
2017-11-17T08:56:15.102Z,172
2017-11-17T08:57:17.622Z,166
2017-11-17T08:58:20.422Z,177
2017-11-17T08:59:22.934Z,168
2017-11-17T09:00:25.709Z,169
2017-11-17T09:01:28.224Z,164
2017-11-17T09:02:31.053Z,173
2017-11-17T09:03:33.863Z,183
2017-11-17T09:04:36.673Z,177
2017-11-17T09:05:39.182Z,175
2017-11-17T09:06:41.682Z,181
2017-11-17T09:07:44.196Z,176
2017-11-17T09:08:46.695Z,174
2017-11-17T09:09:49.478Z,171
2017-11-17T09:10:51.988Z,165
2017-11-17T09:11:54.808Z,173
2017-11-17T09:12:57.325Z,187
2017-11-17T09:13:59.833Z,197
2017-11-17T09:15:02.340Z,186
2017-11-17T09:16:04.848Z,181
2017-11-17T09:17:07.371Z,187
2017-11-17T09:18:10.193Z,185
2017-11-17T09:19:12.679Z,173
2017-11-17T09:20:15.175Z,190
2017-11-17T09:21:17.668Z,186
2017-11-17T09:22:20.188Z,180
2017-11-17T09:23:22.689Z,176
2017-11-17T09:24:25.189Z,184
2017-11-17T09:25:27.690Z,188
2017-11-17T09:26:30.195Z,184
2017-11-17T09:27:32.703Z,177
2017-11-17T09:28:35.210Z,207
2017-11-17T09:29:37.709Z,214
2017-11-17T09:30:40.220Z,198
2017-11-17T09:31:43.035Z,225
2017-11-17T09:32:45.549Z,211
2017-11-17T09:33:48.061Z,197
2017-11-17T09:34:50.557Z,211
2017-11-17T09:35:53.372Z,192
2017-11-17T09:36:55.873Z,178
2017-11-17T09:37:58.380Z,188
2017-11-17T09:39:00.892Z,188
2017-11-17T09:40:03.398Z,193
2017-11-17T09:41:05.903Z,223
2017-11-17T09:42:08.716Z,209
2017-11-17T09:43:11.218Z,191
2017-11-17T09:44:13.726Z,184
2017-11-17T09:45:16.239Z,196
2017-11-17T09:46:18.737Z,208
2017-11-17T09:47:21.247Z,200
2017-11-17T09:48:23.754Z,217
2017-11-17T09:49:26.250Z,243
2017-11-17T09:50:28.765Z,241
2017-11-17T09:51:31.272Z,223
2017-11-17T09:52:33.781Z,231
2017-11-17T09:53:36.288Z,234
2017-11-17T09:54:39.094Z,236
2017-11-17T09:55:41.606Z,233
2017-11-17T09:56:44.120Z,239
2017-11-17T09:57:46.616Z,236
2017-11-17T09:58:49.134Z,241
2017-11-17T09:59:51.646Z,236
2017-11-17T10:00:54.163Z,223
2017-11-17T10:01:56.668Z,215
2017-11-17T10:02:59.184Z,214
2017-11-17T10:04:01.690Z,223
2017-11-17T10:05:04.540Z,230
2017-11-17T10:06:07.345Z,240
2017-11-17T10:07:09.855Z,229
2017-11-17T10:08:12.360Z,229
2017-11-17T10:09:15.185Z,239
2017-11-17T10:10:17.989Z,232
2017-11-17T10:11:20.505Z,223
2017-11-17T10:12:22.997Z,240
2017-11-17T10:13:25.808Z,241
2017-11-17T10:14:28.326Z,217
2017-11-17T10:15:30.828Z,213
2017-11-17T10:16:33.631Z,229
2017-11-17T10:17:36.469Z,240
2017-11-17T10:18:39.262Z,234
2017-11-17T10:19:41.780Z,231
2017-11-17T10:20:44.283Z,225
2017-11-17T10:21:46.797Z,218
2017-11-17T10:22:49.597Z,237
2017-11-17T10:23:52.121Z,246
2017-11-17T10:24:54.944Z,230
2017-11-17T10:25:57.744Z,224
2017-11-17T10:27:00.261Z,231
2017-11-17T10:28:02.773Z,224
2017-11-17T10:29:05.588Z,205
2017-11-17T10:30:08.109Z,215
2017-11-17T10:31:10.612Z,225
2017-11-17T10:32:13.130Z,217
2017-11-17T10:33:15.645Z,217
2017-11-17T10:34:18.151Z,221
2017-11-17T10:35:20.665Z,219
2017-11-17T10:36:23.177Z,222
2017-11-17T10:37:25.693Z,226
2017-11-17T10:38:28.200Z,251
2017-11-17T10:39:30.723Z,244
2017-11-17T10:40:33.528Z,231
2017-11-17T10:41:36.042Z,212
2017-11-17T10:42:38.549Z,199
2017-11-17T10:43:41.056Z,202
2017-11-17T10:44:43.866Z,206
2017-11-17T10:45:46.389Z,215
2017-11-17T10:46:48.898Z,227
2017-11-17T10:47:51.424Z,227
2017-11-17T10:48:54.230Z,231
2017-11-17T10:49:56.741Z,246
2017-11-17T10:50:59.261Z,242
2017-11-17T10:52:01.779Z,239
2017-11-17T10:53:04.290Z,250
2017-11-17T10:54:06.807Z,265
2017-11-17T10:55:09.318Z,245
2017-11-17T10:56:11.840Z,256
2017-11-17T10:57:14.350Z,262
2017-11-17T10:58:16.870Z,252
2017-11-17T10:59:19.682Z,260
2017-11-17T11:00:22.192Z,260
2017-11-17T11:01:25.003Z,267
2017-11-17T11:02:27.516Z,276
2017-11-17T11:03:30.351Z,276
2017-11-17T11:04:32.865Z,279
2017-11-17T11:05:35.371Z,285
2017-11-17T11:06:37.883Z,269
2017-11-17T11:07:40.385Z,281
2017-11-17T11:08:42.907Z,292
2017-11-17T11:09:45.417Z,292
2017-11-17T11:10:47.939Z,306
2017-11-17T11:11:50.430Z,286
2017-11-17T11:12:52.949Z,250
2017-11-17T11:13:55.471Z,248
2017-11-17T11:14:57.982Z,255
2017-11-17T11:16:00.504Z,237
2017-11-17T11:17:03.012Z,249
2017-11-17T11:18:05.524Z,247
2017-11-17T11:19:08.046Z,237
2017-11-17T11:20:10.562Z,244
2017-11-17T11:21:13.066Z,243
2017-11-17T11:22:15.657Z,234
2017-11-17T11:23:18.206Z,230
2017-11-17T11:24:20.721Z,250
2017-11-17T11:25:23.553Z,264
2017-11-17T11:26:26.075Z,247
2017-11-17T11:27:28.593Z,245
2017-11-17T11:28:31.100Z,253
2017-11-17T11:29:33.611Z,246
2017-11-17T11:30:36.432Z,252
2017-11-17T11:31:38.932Z,257
2017-11-17T11:32:41.450Z,251
2017-11-17T11:33:43.970Z,256
2017-11-17T11:34:46.483Z,249
2017-11-17T11:35:48.999Z,230
2017-11-17T11:36:51.518Z,218
2017-11-17T11:37:54.014Z,226
2017-11-17T11:38:56.542Z,241
2017-11-17T11:39:59.052Z,248
2017-11-17T11:41:01.566Z,257
2017-11-17T11:42:04.088Z,238
2017-11-17T11:43:06.597Z,252
2017-11-17T11:44:09.103Z,253
2017-11-17T11:45:11.639Z,248
2017-11-17T11:46:14.445Z,269
2017-11-17T11:47:16.976Z,254
2017-11-17T11:48:19.490Z,248
2017-11-17T11:49:22.000Z,251
2017-11-17T11:50:24.841Z,249
2017-11-17T11:51:27.356Z,233
2017-11-17T11:52:29.857Z,231
2017-11-17T11:53:32.394Z,236
2017-11-17T11:54:34.905Z,227
2017-11-17T11:55:38.003Z,220
2017-11-17T11:56:40.522Z,229
2017-11-17T11:57:43.029Z,230
2017-11-17T11:58:45.538Z,228
2017-11-17T11:59:48.057Z,222
2017-11-17T12:00:50.558Z,238
2017-11-17T12:01:53.408Z,254
2017-11-17T12:02:56.218Z,251
2017-11-17T12:03:59.020Z,232
2017-11-17T12:05:01.546Z,223
2017-11-17T12:06:04.057Z,220
2017-11-17T12:07:06.578Z,220
2017-11-17T12:08:09.085Z,214
2017-11-17T12:09:11.597Z,214
2017-11-17T12:10:14.408Z,225
2017-11-17T12:11:16.940Z,237
2017-11-17T12:12:19.453Z,226
2017-11-17T12:13:21.954Z,224
2017-11-17T12:14:24.470Z,250
2017-11-17T12:15:26.979Z,241
2017-11-17T12:16:29.498Z,234
2017-11-17T12:17:32.307Z,235
2017-11-17T12:18:35.108Z,235
2017-11-17T12:19:37.620Z,230
2017-11-17T12:20:40.147Z,206
2017-11-17T12:21:42.659Z,195
2017-11-17T12:22:45.168Z,210
2017-11-17T12:23:47.685Z,204
2017-11-17T12:24:50.202Z,191
2017-11-17T12:25:59.262Z,185
2017-11-17T12:27:07.940Z,202
2017-11-17T12:28:11.605Z,190
2017-11-17T12:29:14.124Z,181
2017-11-17T12:30:16.631Z,186
2017-11-17T12:31:19.150Z,182
2017-11-17T12:32:21.659Z,169
2017-11-17T12:33:24.183Z,176
2017-11-17T12:34:26.693Z,173
2017-11-17T12:35:29.207Z,145
2017-11-17T12:36:32.017Z,128
2017-11-17T12:37:34.539Z,113
2017-11-17T12:38:37.341Z,121
2017-11-17T12:39:40.163Z,120
2017-11-17T12:40:42.677Z,121
2017-11-17T12:41:45.230Z,105
2017-11-17T12:42:48.153Z,85
2017-11-17T12:43:51.749Z,81
2017-11-17T12:44:54.277Z,89
2017-11-17T12:45:56.842Z,88
2017-11-17T12:46:59.685Z,86
2017-11-17T12:48:02.522Z,83
2017-11-17T12:49:05.095Z,76
2017-11-17T12:50:07.602Z,81
2017-11-17T12:51:10.221Z,77
2017-11-17T12:52:12.742Z,87
2017-11-17T12:53:15.253Z,92
2017-11-17T12:54:17.797Z,94
2017-11-17T12:55:20.463Z,93
2017-11-17T12:56:22.981Z,83
2017-11-17T12:57:25.493Z,93
2017-11-17T12:58:28.006Z,90
2017-11-17T12:59:30.535Z,76
2017-11-17T13:00:33.402Z,78
2017-11-17T13:01:36.553Z,76
2017-11-17T13:02:39.063Z,71
2017-11-17T13:03:41.586Z,82
2017-11-17T13:04:44.099Z,88
2017-11-17T13:05:47.528Z,98
2017-11-17T13:06:50.031Z,88
2017-11-17T13:07:52.555Z,72
2017-11-17T13:08:55.445Z,75
2017-11-17T13:09:57.961Z,88
2017-11-17T13:11:00.481Z,97
2017-11-17T13:12:03.304Z,104
2017-11-17T13:13:05.810Z,101
2017-11-17T13:14:08.612Z,94
2017-11-17T13:15:11.130Z,91
2017-11-17T13:16:13.957Z,91
2017-11-17T13:17:16.916Z,88
2017-11-17T13:18:19.421Z,99
2017-11-17T13:19:21.968Z,116
2017-11-17T13:20:24.525Z,97
2017-11-17T13:21:27.082Z,74
2017-11-17T13:22:29.597Z,55
2017-11-17T13:23:32.116Z,43
2017-11-17T13:24:39.549Z,41
2017-11-17T13:25:50.921Z,39
2017-11-17T13:27:05.598Z,38
2017-11-17T13:28:16.812Z,37
2017-11-17T13:29:29.680Z,38
2017-11-17T13:30:38.404Z,36
2017-11-17T13:31:45.642Z,37
2017-11-17T13:32:50.643Z,37
2017-11-17T13:34:04.597Z,36
2017-11-17T13:35:19.146Z,35
2017-11-17T13:36:31.268Z,34
2017-11-17T13:37:46.809Z,34
2017-11-17T13:39:00.521Z,34
2017-11-17T13:40:10.838Z,32
2017-11-17T13:41:20.131Z,32
2017-11-17T13:42:25.435Z,31
2017-11-17T13:43:27.945Z,31
2017-11-17T13:44:30.835Z,30
2017-11-17T13:45:33.969Z,30
2017-11-17T13:46:36.453Z,30
2017-11-17T13:47:39.024Z,29
2017-11-17T13:48:41.525Z,29
2017-11-17T13:49:44.032Z,29
2017-11-17T13:50:46.539Z,28
2017-11-17T13:51:49.033Z,28
2017-11-17T13:52:52.719Z,28
2017-11-17T13:53:55.405Z,27
2017-11-17T13:54:58.547Z,27
2017-11-17T13:56:01.661Z,27
2017-11-17T13:57:04.261Z,27
2017-11-17T13:58:07.190Z,26
2017-11-17T13:59:10.014Z,26
2017-11-17T14:00:12.531Z,25
2017-11-17T14:01:15.022Z,26
2017-11-17T14:02:17.539Z,25
2017-11-17T14:03:20.039Z,25
2017-11-17T14:04:22.540Z,25
2017-11-17T14:05:25.058Z,24
2017-11-17T14:06:27.553Z,24
2017-11-17T14:07:30.056Z,24
2017-11-17T14:08:32.560Z,23
2017-11-17T14:09:35.044Z,23
2017-11-17T14:10:37.879Z,23
2017-11-17T14:11:40.680Z,22
2017-11-17T14:12:43.172Z,22
2017-11-17T14:13:45.680Z,22
2017-11-17T14:14:48.187Z,21
2017-11-17T14:15:50.698Z,21
2017-11-17T14:16:53.204Z,23
2017-11-17T14:17:55.699Z,22
2017-11-17T14:18:58.203Z,20
2017-11-17T14:20:01.020Z,19
2017-11-17T14:21:03.513Z,18
2017-11-17T14:22:06.327Z,18
2017-11-17T14:23:08.826Z,17
2017-11-17T14:24:11.343Z,17
2017-11-17T14:25:13.828Z,17
2017-11-17T14:26:16.335Z,16
2017-11-17T14:27:18.862Z,15
2017-11-17T14:28:21.661Z,15
2017-11-17T14:29:24.164Z,14
2017-11-17T14:30:26.670Z,13
2017-11-17T14:31:29.174Z,13
2017-11-17T14:32:31.686Z,13
2017-11-17T14:33:34.512Z,13
2017-11-17T14:34:36.999Z,12
2017-11-17T14:35:39.504Z,12
2017-11-17T14:36:42.010Z,12
2017-11-17T14:37:44.511Z,12
2017-11-17T14:38:47.011Z,12
2017-11-17T14:39:49.509Z,12
2017-11-17T14:40:52.012Z,11
2017-11-17T14:41:54.518Z,11
2017-11-17T14:42:57.024Z,11
2017-11-17T14:43:59.520Z,10
2017-11-17T14:45:02.016Z,10
2017-11-17T14:46:04.522Z,9
2017-11-17T14:47:07.023Z,9
2017-11-17T14:48:09.820Z,9
2017-11-17T14:49:12.329Z,8
2017-11-17T14:50:15.119Z,8
2017-11-17T14:51:17.919Z,8
2017-11-17T14:52:20.423Z,8
2017-11-17T14:53:22.916Z,7
2017-11-17T14:54:25.421Z,7
2017-11-17T14:55:27.916Z,7
2017-11-17T14:56:30.438Z,7
2017-11-17T14:57:32.935Z,6
2017-11-17T14:58:35.460Z,6
2017-11-17T14:59:37.964Z,6
2017-11-17T15:00:40.745Z,5